Weather History for New York Downtown Manhattan/w, NY

Change the Weather History Date:

Tuesday, April 1, 2014

  Actual Average (KNYC) Record (KNYC)
Temperature  
Mean Temperature 48 °F 48 °F  
Max Temperature 57 °F 56 °F 83 °F (1917)
Min Temperature 39 °F 40 °F 12 °F (1923)
Degree Days  
Heating Degree Days 17 17  
Month to date heating degree days 17  
Since 1 July heating degree days 4239  
Cooling Degree Days 0 0  
Month to date cooling degree days 0  
Year to date cooling degree days 1  
Moisture  
Dew Point 31 °F    
Average Humidity 56    
Maximum Humidity 76    
Minimum Humidity 36    
Precipitation  
Precipitation 0.21 in 0.16 in 1.89 in (1993)
Month to date precipitation 0.16  
Year to date precipitation 11.26  
Snow  
Snow 0.00 in 0.10 in 8.50 in (1924)
Month to date snowfall 0.1  
Since 1 July snowfall 25.3  
Snow Depth -    
Sea Level Pressure  
Sea Level Pressure 30.09 in    
Wind  
Wind Speed 5 mph (WSW)    
Max Wind Speed 10 mph    
Max Gust Speed 56 mph    
Visibility 10 miles    
Events      
T = Trace of Precipitation, MM = Missing Value Source: NWS Daily Summary

Daily Weather History Graph

Daily Weather History Graph

Search for Another Location

Airport:

Trip Planner

Search our weather history database for the weather conditions in past years. The results will help you decide how hot, cold, wet, or windy it might be!

Date:

Astronomy

Apr. 01, 2014 Rise Set
Actual Time 6:39 AM EDT 7:20 PM EDT
Civil Twilight 6:12 AM EDT 7:48 PM EDT
Nautical Twilight 5:39 AM EDT 8:21 PM EDT
Astronomical Twilight 5:05 AM EDT 8:54 PM EDT
Moon 7:39 AM EDT (4/1) 9:41 PM EDT (4/1)
Length of Visible Light 13h 36m
Length of Day
12h 41m
Waxing Crescent, 4% of the Moon is Illuminated
Apr 1
Waxing Crescent
Apr 7
First Quarter
Apr 15
Full
Apr 22
Last Quarter
Apr 29
New

Hourly Weather History & Observations

Time (EDT) Temp. Windchill Dew Point Humidity Pressure Visibility Wind Dir Wind Speed Gust Speed Precip Events Conditions
12:15 AM 41.0 °F 35.8 °F 30.2 °F 65% 30.09 in 10.0 mi NE 8.1 mph - N/A   Clear
12:35 AM 42.8 °F 37.5 °F 28.4 °F 57% 30.09 in 10.0 mi NE 9.2 mph - N/A   Clear
12:55 AM 42.8 °F 38.6 °F 28.4 °F 57% 30.10 in 10.0 mi NE 6.9 mph 17.3 mph N/A   Clear
1:15 AM 42.8 °F 41.1 °F 28.4 °F 57% 30.10 in 10.0 mi West 3.5 mph - N/A   Clear
1:35 AM 42.8 °F 38.6 °F 28.4 °F 57% 30.10 in 10.0 mi NE 6.9 mph 18.4 mph N/A   Clear
1:55 AM 42.8 °F 37.0 °F 28.4 °F 57% 30.11 in 10.0 mi NE 10.4 mph - N/A   Clear
2:15 AM 42.8 °F - 28.4 °F 57% 30.11 in 10.0 mi Calm Calm - N/A   Clear
2:35 AM 41.0 °F 36.4 °F 28.4 °F 61% 30.11 in 10.0 mi West 6.9 mph - N/A   Clear
2:55 AM 41.0 °F 37.1 °F 28.4 °F 61% 30.11 in 10.0 mi West 5.8 mph - N/A   Clear
3:15 AM 41.0 °F 39.0 °F 28.4 °F 61% 30.12 in 10.0 mi West 3.5 mph - N/A   Clear
3:35 AM 41.0 °F 39.0 °F 28.4 °F 61% 30.11 in 10.0 mi East 3.5 mph - N/A   Clear
3:55 AM 39.2 °F 35.0 °F 28.4 °F 65% 30.10 in 10.0 mi NE 5.8 mph - N/A   Clear
4:15 AM 39.2 °F 35.9 °F 28.4 °F 65% 30.10 in 10.0 mi NE 4.6 mph - N/A   Clear
4:35 AM 41.0 °F 38.0 °F 28.4 °F 61% 30.09 in 10.0 mi NNE 4.6 mph - N/A   Clear
4:55 AM 41.0 °F - 28.4 °F 61% 30.10 in 10.0 mi Calm Calm - N/A   Clear
5:15 AM 41.0 °F 36.4 °F 28.4 °F 61% 30.11 in 10.0 mi ENE 6.9 mph - N/A   Clear
5:35 AM 39.2 °F 35.9 °F 28.4 °F 65% 30.11 in 10.0 mi SSW 4.6 mph - N/A   Clear
5:55 AM 39.2 °F - 28.4 °F 65% 30.12 in 10.0 mi Calm Calm - N/A   Clear
6:15 AM 39.2 °F 35.9 °F 28.4 °F 65% 30.11 in 10.0 mi ENE 4.6 mph - N/A   Clear
6:35 AM 39.2 °F 35.9 °F 28.4 °F 65% 30.12 in 10.0 mi West 4.6 mph - N/A   Clear
6:55 AM 39.2 °F 35.0 °F 28.4 °F 65% 30.13 in 10.0 mi West 5.8 mph - N/A   Clear
7:15 AM 39.2 °F 34.2 °F 28.4 °F 65% 30.13 in 10.0 mi West 6.9 mph - N/A   Clear
7:35 AM 39.2 °F 34.2 °F 28.4 °F 65% 30.14 in 10.0 mi West 6.9 mph - N/A   Clear
7:55 AM 39.2 °F 35.9 °F 30.2 °F 70% 30.14 in 10.0 mi WSW 4.6 mph - N/A   Clear
8:15 AM 41.0 °F - 30.2 °F 65% 30.14 in 10.0 mi Calm Calm - N/A   Clear
8:35 AM 42.8 °F - 28.4 °F 57% 30.14 in 10.0 mi Calm Calm - N/A   Clear
8:55 AM 42.8 °F 38.0 °F 28.4 °F 57% 30.14 in 10.0 mi West 8.1 mph - N/A   Clear
9:15 AM 44.6 °F 42.2 °F 28.4 °F 53% 30.15 in 10.0 mi WNW 4.6 mph - N/A   Clear
9:35 AM 44.6 °F 43.1 °F 28.4 °F 53% 30.14 in 10.0 mi East 3.5 mph - N/A   Clear
9:55 AM 46.4 °F 44.3 °F 28.4 °F 50% 30.13 in 10.0 mi ESE 4.6 mph - N/A   Clear
10:15 AM 46.4 °F 42.9 °F 28.4 °F 50% 30.13 in 8.0 mi West 6.9 mph - N/A   Clear
10:35 AM 48.2 °F - 28.4 °F 46% 30.14 in 10.0 mi WSW 6.9 mph - N/A   Clear
10:55 AM 48.2 °F - 28.4 °F 46% 30.13 in 10.0 mi SE 3.5 mph - 0.01 in   Clear
11:15 AM 50.0 °F - 28.4 °F 43% 30.13 in 10.0 mi WSW 6.9 mph - 0.06 in   Clear
11:35 AM 50.0 °F - 30.2 °F 47% 30.13 in 9.0 mi WSW 8.1 mph 24.2 mph 0.08 in   Clear
11:55 AM 50.0 °F - 30.2 °F 47% 30.11 in 10.0 mi WSW 8.1 mph - 0.08 in   Clear
12:15 PM 50.0 °F - 30.2 °F 47% 30.10 in 9.0 mi WSW 5.8 mph - N/A   Clear
12:35 PM 50.0 °F - 30.2 °F 47% 30.10 in 10.0 mi SW 6.9 mph - N/A   Clear
12:55 PM 51.8 °F - 30.2 °F 44% 30.09 in 10.0 mi SW 5.8 mph - N/A   Clear
1:15 PM 51.8 °F - 30.2 °F 44% 30.09 in 10.0 mi SW 5.8 mph - N/A   Clear
1:35 PM 51.8 °F - 30.2 °F 44% 30.08 in 10.0 mi SW 3.5 mph - N/A   Clear
1:55 PM 53.6 °F - 30.2 °F 41% 30.06 in 10.0 mi South 5.8 mph - 0.01 in   Clear
2:15 PM 53.6 °F - 30.2 °F 41% 30.06 in 9.0 mi SSW 3.5 mph - N/A   Clear
2:35 PM 53.6 °F - 32.0 °F 44% 30.05 in 10.0 mi WSW 3.5 mph - N/A   Clear
2:55 PM 53.6 °F - 32.0 °F 44% 30.04 in 10.0 mi West 4.6 mph - N/A   Clear
3:15 PM 55.4 °F - 30.2 °F 38% 30.03 in 9.0 mi Calm Calm - N/A   Clear
3:35 PM 55.4 °F - 33.8 °F 44% 30.03 in 9.0 mi West 3.5 mph - 0.01 in   Clear
3:55 PM 55.4 °F - 32.0 °F 41% 30.02 in 10.0 mi Calm Calm - 0.01 in   Clear
4:15 PM 55.4 °F - 32.0 °F 41% 30.01 in 10.0 mi Calm Calm - 0.01 in   Clear
4:35 PM 57.2 °F - 30.2 °F 36% 30.01 in 10.0 mi West 3.5 mph - 0.01 in   Clear
4:55 PM 57.2 °F - 32.0 °F 38% 30.00 in 10.0 mi West 3.5 mph - 0.01 in   Clear
5:15 PM 55.4 °F - 32.0 °F 41% 30.00 in 10.0 mi West 3.5 mph - N/A   Clear
5:35 PM 55.4 °F - 33.8 °F 44% 30.01 in 10.0 mi SSW 9.2 mph - N/A   Clear
5:55 PM 51.8 °F - 33.8 °F 50% 30.02 in 10.0 mi SW 5.8 mph 56.4 mph 0.09 in   Clear
6:15 PM 50.0 °F - 32.0 °F 50% 30.02 in 10.0 mi Calm Calm - N/A   Clear
6:35 PM 51.8 °F - 33.8 °F 50% 30.02 in 10.0 mi Calm Calm - N/A   Clear
6:55 PM 51.8 °F - 33.8 °F 50% 30.02 in 10.0 mi Calm Calm - N/A   Clear
7:15 PM 50.0 °F - 33.8 °F 54% 30.03 in 10.0 mi South 5.8 mph - N/A   Clear
7:35 PM 48.2 °F - 33.8 °F 58% 30.04 in 10.0 mi South 8.1 mph - N/A   Clear
7:55 PM 46.4 °F - 33.8 °F 62% 30.06 in 10.0 mi Calm Calm - N/A   Mostly Cloudy
8:15 PM 48.2 °F - 32.0 °F 54% 30.07 in 10.0 mi South 8.1 mph - N/A   Overcast
8:35 PM 46.4 °F - 33.8 °F 62% 30.08 in 10.0 mi Calm Calm - N/A   Partly Cloudy
8:55 PM 46.4 °F 44.3 °F 33.8 °F 62% 30.08 in 10.0 mi South 4.6 mph - N/A   Clear
9:15 PM 46.4 °F 45.2 °F 35.6 °F 66% 30.08 in 10.0 mi South 3.5 mph - N/A   Clear
9:35 PM 44.6 °F - 35.6 °F 71% 30.08 in 10.0 mi Calm Calm - N/A   Clear
9:55 PM 44.6 °F 40.7 °F 35.6 °F 71% 30.08 in 10.0 mi SSW 6.9 mph - N/A   Clear
10:15 PM 44.6 °F 43.1 °F 33.8 °F 66% 30.09 in 10.0 mi SSW 3.5 mph - N/A   Clear
10:35 PM 42.8 °F 41.1 °F 35.6 °F 76% 30.09 in 10.0 mi SSW 3.5 mph - N/A   Clear
10:55 PM 42.8 °F 40.1 °F 33.8 °F 70% 30.10 in 10.0 mi WSW 4.6 mph - N/A   Clear
11:15 PM 42.8 °F - 33.8 °F 70% 30.10 in 10.0 mi Calm Calm - N/A   Clear
11:35 PM 42.8 °F - 33.8 °F 70% 30.09 in 10.0 mi Calm Calm - N/A   Clear
11:55 PM 42.8 °F - 33.8 °F 70% 30.09 in 10.0 mi Calm Calm - N/A   Clear